createdAt,value
2023-02-26T00:01:42.338Z,1.53
2023-02-26T00:04:11.515Z,1.77
2023-02-26T00:06:53.531Z,1.30
2023-02-26T00:09:26.755Z,1.40
2023-02-26T00:11:55.534Z,1.40
2023-02-26T00:14:24.027Z,1.50
2023-02-26T00:17:06.912Z,1.50
2023-02-26T00:19:35.395Z,1.43
2023-02-26T00:22:06.510Z,1.20
2023-02-26T00:24:34.679Z,1.27
2023-02-26T00:27:02.647Z,1.63
2023-02-26T00:29:31.122Z,1.33
2023-02-26T00:32:01.191Z,0.90
2023-02-26T00:34:29.868Z,1.07
2023-02-26T00:37:11.115Z,1.13
2023-02-26T00:39:45.134Z,0.97
2023-02-26T00:42:14.298Z,0.93
2023-02-26T00:44:42.935Z,0.83
2023-02-26T00:47:21.231Z,0.60
2023-02-26T00:50:01.876Z,0.80
2023-02-26T00:52:39.085Z,1.10
2023-02-26T00:55:07.632Z,0.80
2023-02-26T00:57:35.567Z,0.90
2023-02-26T01:00:05.903Z,1.20
2023-02-26T01:02:36.222Z,0.80
2023-02-26T01:05:05.212Z,1.00
2023-02-26T01:07:41.231Z,0.90
2023-02-26T01:10:11.160Z,0.90
2023-02-26T01:12:39.569Z,0.90
2023-02-26T01:15:08.605Z,1.07
2023-02-26T01:17:45.456Z,0.70
2023-02-26T01:20:18.762Z,0.63
2023-02-26T01:22:54.761Z,0.90
2023-02-26T01:25:27.198Z,0.77
2023-02-26T01:27:57.583Z,1.20
2023-02-26T01:30:26.761Z,0.80
2023-02-26T01:33:04.603Z,1.10
2023-02-26T01:35:44.744Z,0.87
2023-02-26T01:38:21.768Z,0.90
2023-02-26T01:41:29.885Z,1.00
2023-02-26T01:44:05.937Z,1.13
2023-02-26T01:46:40.315Z,0.90
2023-02-26T01:49:15.193Z,1.13
2023-02-26T01:51:49.488Z,1.00
2023-02-26T01:54:20.811Z,1.00
2023-02-26T01:56:52.987Z,1.30
2023-02-26T01:59:24.468Z,0.80
2023-02-26T02:01:54.738Z,0.80
2023-02-26T02:04:25.587Z,0.93
2023-02-26T02:06:54.238Z,1.40
2023-02-26T02:09:22.379Z,0.90
2023-02-26T02:12:11.362Z,0.73
2023-02-26T02:14:55.046Z,1.20
2023-02-26T02:17:33.961Z,1.00
2023-02-26T02:20:49.851Z,1.47
2023-02-26T02:23:25.659Z,1.17
2023-02-26T02:26:35.849Z,1.17
2023-02-26T02:29:31.965Z,1.00
2023-02-26T02:32:06.113Z,1.00
2023-02-26T02:34:39.199Z,0.97
2023-02-26T02:37:13.539Z,1.20
2023-02-26T02:39:45.434Z,1.10
2023-02-26T02:42:25.830Z,0.90
2023-02-26T02:44:59.786Z,1.00
2023-02-26T02:47:33.197Z,0.77
2023-02-26T02:50:07.022Z,1.20
2023-02-26T02:52:40.035Z,1.00
2023-02-26T02:55:13.966Z,1.10
2023-02-26T02:57:48.337Z,1.47
2023-02-26T03:00:18.531Z,1.30
2023-02-26T03:02:54.951Z,1.50
2023-02-26T03:05:23.078Z,1.13
2023-02-26T03:07:54.637Z,1.43
2023-02-26T03:10:22.864Z,1.03
2023-02-26T03:12:53.166Z,0.87
2023-02-26T03:15:32.635Z,1.20
2023-02-26T03:18:09.138Z,0.97
2023-02-26T03:20:44.887Z,1.03
2023-02-26T03:23:20.714Z,1.10
2023-02-26T03:25:52.816Z,1.27
2023-02-26T03:28:26.512Z,1.20
2023-02-26T03:30:59.551Z,0.50
2023-02-26T03:33:34.946Z,1.17
2023-02-26T03:36:10.300Z,0.83
2023-02-26T03:38:43.104Z,0.70
2023-02-26T03:41:14.715Z,0.97
2023-02-26T03:43:47.289Z,1.20
2023-02-26T03:46:19.343Z,0.80
2023-02-26T03:48:51.316Z,1.20
2023-02-26T03:51:21.807Z,1.00
2023-02-26T03:53:54.952Z,0.73
2023-02-26T03:56:27.388Z,1.07
2023-02-26T03:58:55.920Z,0.87
2023-02-26T04:01:33.133Z,1.00
2023-02-26T04:04:06.840Z,1.30
2023-02-26T04:06:35.800Z,0.93
2023-02-26T04:09:05.205Z,0.90
2023-02-26T04:11:33.677Z,1.00
2023-02-26T04:14:01.729Z,1.10
2023-02-26T04:16:29.857Z,0.80
2023-02-26T04:18:58.053Z,1.20
2023-02-26T04:21:27.417Z,0.70
2023-02-26T04:23:55.451Z,0.73
2023-02-26T04:26:24.024Z,0.90
2023-02-26T04:28:52.132Z,1.00
2023-02-26T04:31:20.681Z,0.80
2023-02-26T04:33:48.739Z,1.00
2023-02-26T04:36:16.767Z,1.10
2023-02-26T04:38:46.174Z,1.00
2023-02-26T04:41:14.352Z,1.00
2023-02-26T04:43:43.046Z,1.20
2023-02-26T04:46:11.145Z,0.60
2023-02-26T04:48:40.780Z,1.53
2023-02-26T04:51:09.049Z,0.90
2023-02-26T04:53:37.237Z,1.17
2023-02-26T04:56:07.875Z,0.70
2023-02-26T04:58:36.260Z,0.70
2023-02-26T05:01:04.357Z,1.17
2023-02-26T05:03:32.327Z,1.30
2023-02-26T05:06:00.541Z,0.90
2023-02-26T05:08:28.490Z,1.07
2023-02-26T05:10:56.472Z,0.80
2023-02-26T05:13:25.927Z,1.30
2023-02-26T05:15:54.950Z,1.53
2023-02-26T05:18:23.154Z,0.80
2023-02-26T05:20:54.645Z,1.20
2023-02-26T05:23:23.310Z,0.93
2023-02-26T05:25:51.983Z,0.70
2023-02-26T05:28:19.973Z,0.80
2023-02-26T05:30:49.428Z,0.97
2023-02-26T05:33:17.531Z,1.20
2023-02-26T05:35:46.846Z,0.83
2023-02-26T05:38:14.766Z,1.00
2023-02-26T05:40:42.929Z,0.60
2023-02-26T05:43:11.335Z,1.30
2023-02-26T05:45:39.297Z,1.13
2023-02-26T05:48:08.702Z,1.20
2023-02-26T05:50:38.151Z,0.67
2023-02-26T05:53:06.137Z,0.90
2023-02-26T05:55:34.123Z,0.87
2023-02-26T05:58:02.114Z,1.10
2023-02-26T06:00:30.962Z,0.87
2023-02-26T06:02:59.024Z,0.90
2023-02-26T06:05:28.408Z,0.77
2023-02-26T06:07:56.350Z,0.73
2023-02-26T06:10:24.389Z,1.17
2023-02-26T06:12:52.484Z,0.83
2023-02-26T06:15:20.652Z,0.80
2023-02-26T06:17:49.101Z,0.70
2023-02-26T06:20:17.228Z,0.80
2023-02-26T06:22:46.619Z,0.80
2023-02-26T06:25:15.015Z,0.80
2023-02-26T06:27:43.261Z,1.13
2023-02-26T06:30:12.559Z,1.00
2023-02-26T06:32:40.667Z,0.70
2023-02-26T06:35:09.823Z,0.90
2023-02-26T06:37:38.138Z,0.87
2023-02-26T06:40:10.989Z,0.70
2023-02-26T06:42:39.080Z,0.70
2023-02-26T06:45:11.239Z,1.03
2023-02-26T06:47:39.240Z,0.70
2023-02-26T06:50:08.324Z,1.20
2023-02-26T06:52:36.427Z,0.70
2023-02-26T06:55:04.538Z,1.00
2023-02-26T06:57:33.890Z,0.60
2023-02-26T07:00:02.544Z,0.93
2023-02-26T07:02:30.609Z,1.10
2023-02-26T07:04:58.861Z,1.10
2023-02-26T07:07:28.554Z,1.10
2023-02-26T07:09:56.650Z,1.00
2023-02-26T07:12:24.606Z,0.80
2023-02-26T07:14:54.005Z,0.93
2023-02-26T07:17:22.085Z,1.17
2023-02-26T07:19:51.779Z,1.23
2023-02-26T07:22:22.115Z,0.90
2023-02-26T07:24:51.246Z,1.10
2023-02-26T07:27:19.654Z,1.20
2023-02-26T07:29:47.681Z,1.00
2023-02-26T07:32:17.185Z,1.10
2023-02-26T07:34:45.218Z,0.90
2023-02-26T07:37:13.223Z,0.70
2023-02-26T07:39:41.174Z,1.10
2023-02-26T07:42:09.389Z,0.80
2023-02-26T07:44:37.449Z,0.83
2023-02-26T07:47:05.914Z,0.80
2023-02-26T07:49:35.468Z,0.93
2023-02-26T07:52:03.673Z,0.83
2023-02-26T07:54:31.787Z,0.90
2023-02-26T07:56:59.870Z,0.90
2023-02-26T07:59:28.092Z,0.90
2023-02-26T08:01:56.856Z,1.00
2023-02-26T08:04:25.393Z,1.57
2023-02-26T08:06:54.866Z,0.90
2023-02-26T08:09:23.331Z,0.80
2023-02-26T08:11:51.537Z,0.67
2023-02-26T08:14:19.699Z,1.07
2023-02-26T08:16:47.678Z,0.90
2023-02-26T08:19:16.185Z,0.77
2023-02-26T08:21:44.217Z,0.90
2023-02-26T08:24:14.224Z,0.80
2023-02-26T08:26:42.244Z,0.83
2023-02-26T08:29:10.293Z,0.70
2023-02-26T08:31:38.389Z,1.00
2023-02-26T08:34:06.689Z,0.73
2023-02-26T08:36:34.714Z,0.87
2023-02-26T08:39:02.897Z,0.90
2023-02-26T08:41:32.725Z,0.70
2023-02-26T08:44:01.326Z,0.40
2023-02-26T08:46:29.963Z,1.00
2023-02-26T08:48:58.263Z,0.77
2023-02-26T08:51:26.728Z,1.13
2023-02-26T08:53:55.015Z,0.97
2023-02-26T08:56:23.588Z,0.50
2023-02-26T08:58:53.218Z,0.70
2023-02-26T09:01:21.236Z,0.83
2023-02-26T09:03:49.503Z,0.77
2023-02-26T09:06:17.477Z,0.80
2023-02-26T09:08:45.506Z,0.70
2023-02-26T09:11:13.601Z,0.57
2023-02-26T09:13:41.550Z,0.60
2023-02-26T09:16:12.984Z,0.57
2023-02-26T09:18:41.618Z,0.87
2023-02-26T09:21:09.608Z,0.47
2023-02-26T09:23:37.970Z,0.80
2023-02-26T09:26:08.870Z,0.70
2023-02-26T09:28:37.007Z,0.60
2023-02-26T09:31:07.195Z,0.70
2023-02-26T09:33:36.983Z,0.50
2023-02-26T09:36:05.737Z,1.10
2023-02-26T09:38:35.280Z,0.67
2023-02-26T09:41:07.258Z,0.80
2023-02-26T09:43:57.810Z,0.60
2023-02-26T09:46:33.903Z,0.50
2023-02-26T09:49:10.940Z,0.67
2023-02-26T09:51:39.017Z,0.60
2023-02-26T09:54:15.716Z,0.67
2023-02-26T09:56:44.894Z,0.50
2023-02-26T09:59:13.247Z,0.67
2023-02-26T10:01:48.960Z,0.73
2023-02-26T10:04:29.842Z,0.30
2023-02-26T10:07:12.035Z,0.40
2023-02-26T10:09:56.220Z,0.70
2023-02-26T10:12:27.035Z,0.50
2023-02-26T10:15:00.326Z,0.57
2023-02-26T10:17:35.897Z,0.60
2023-02-26T10:20:11.945Z,0.60
2023-02-26T10:22:48.542Z,0.80
2023-02-26T10:25:21.341Z,0.50
2023-02-26T10:27:57.115Z,0.70
2023-02-26T10:30:33.329Z,0.97
2023-02-26T10:33:08.933Z,0.60
2023-02-26T10:35:46.159Z,1.00
2023-02-26T10:38:17.555Z,0.93
2023-02-26T10:40:51.609Z,0.70
2023-02-26T10:43:23.506Z,1.03
2023-02-26T10:46:03.275Z,0.77
2023-02-26T10:48:47.035Z,0.70
2023-02-26T10:51:19.134Z,0.80
2023-02-26T10:53:50.424Z,1.10
2023-02-26T10:56:22.929Z,0.93
2023-02-26T10:58:54.945Z,1.13
2023-02-26T11:01:25.413Z,0.80
2023-02-26T11:03:57.882Z,0.80
2023-02-26T11:06:32.054Z,1.00
2023-02-26T11:09:02.057Z,0.77
2023-02-26T11:11:43.465Z,0.80
2023-02-26T11:14:12.473Z,1.07
2023-02-26T11:16:46.922Z,1.30
2023-02-26T11:19:17.038Z,0.70
2023-02-26T11:21:48.789Z,0.50
2023-02-26T11:24:30.422Z,0.90
2023-02-26T11:27:04.115Z,0.80
2023-02-26T11:29:39.481Z,0.60
2023-02-26T11:32:08.848Z,0.70
2023-02-26T11:34:38.470Z,0.73
2023-02-26T11:37:07.939Z,0.77
2023-02-26T11:39:39.443Z,0.50
2023-02-26T11:42:07.577Z,1.10
2023-02-26T11:44:39.712Z,0.97
2023-02-26T11:47:31.262Z,0.30
2023-02-26T11:50:05.902Z,0.60
2023-02-26T11:52:41.269Z,1.00
2023-02-26T11:55:21.062Z,0.87
2023-02-26T11:57:54.327Z,0.80
2023-02-26T12:00:31.253Z,0.70
2023-02-26T12:03:04.743Z,0.60
2023-02-26T12:05:33.004Z,0.60
2023-02-26T12:08:04.270Z,0.70
2023-02-26T12:10:39.269Z,0.93
2023-02-26T12:13:14.246Z,0.50
2023-02-26T12:15:54.593Z,0.70
2023-02-26T12:18:39.385Z,1.00
2023-02-26T12:21:25.525Z,0.50
2023-02-26T12:24:29.414Z,0.60
2023-02-26T12:27:04.675Z,1.10
2023-02-26T12:29:48.850Z,0.90
2023-02-26T12:32:40.682Z,0.47
2023-02-26T12:35:40.451Z,0.80
2023-02-26T12:38:25.567Z,0.60
2023-02-26T12:41:14.557Z,0.40
2023-02-26T12:43:48.405Z,0.53
2023-02-26T12:46:27.360Z,0.60
2023-02-26T12:49:31.613Z,0.60
2023-02-26T12:52:18.664Z,0.70
2023-02-26T12:55:02.164Z,0.70
2023-02-26T12:57:54.512Z,0.70
2023-02-26T13:00:52.968Z,0.60
2023-02-26T13:03:47.252Z,0.97
2023-02-26T13:06:45.577Z,0.67
2023-02-26T13:09:25.265Z,1.00
2023-02-26T13:12:09.680Z,0.80
2023-02-26T13:14:53.299Z,0.63
2023-02-26T13:17:29.363Z,1.00
2023-02-26T13:20:01.699Z,0.50
2023-02-26T13:22:33.749Z,0.70
2023-02-26T13:25:05.398Z,0.70
2023-02-26T13:27:36.235Z,1.00
2023-02-26T13:30:23.589Z,0.67
2023-02-26T13:32:54.699Z,0.67
2023-02-26T13:35:26.708Z,0.77
2023-02-26T13:37:57.589Z,0.80
2023-02-26T13:40:48.589Z,0.70
2023-02-26T13:43:30.846Z,0.80
2023-02-26T13:46:09.173Z,0.90
2023-02-26T13:48:47.343Z,0.80
2023-02-26T13:51:26.438Z,0.80
2023-02-26T13:53:58.677Z,0.70
2023-02-26T13:56:59.272Z,0.90
2023-02-26T13:59:33.108Z,0.70
2023-02-26T14:02:35.996Z,0.97
2023-02-26T14:05:11.056Z,0.87
2023-02-26T14:07:50.545Z,0.80
2023-02-26T14:10:27.407Z,0.80
2023-02-26T14:13:11.945Z,0.80
2023-02-26T14:15:49.837Z,0.80
2023-02-26T14:18:32.724Z,0.80
2023-02-26T14:21:36.841Z,1.10
2023-02-26T14:24:14.611Z,0.83
2023-02-26T14:26:47.414Z,0.77
2023-02-26T14:29:20.900Z,0.77
2023-02-26T14:32:07.258Z,0.70
2023-02-26T14:34:44.155Z,0.83
2023-02-26T14:37:16.625Z,0.70
2023-02-26T14:39:49.393Z,0.50
2023-02-26T14:42:22.900Z,0.97
2023-02-26T14:44:55.694Z,0.73
2023-02-26T14:47:24.952Z,0.87
2023-02-26T14:50:00.318Z,1.10
2023-02-26T14:53:04.234Z,0.77
2023-02-26T14:55:45.338Z,0.70
2023-02-26T14:58:50.768Z,0.70
2023-02-26T15:01:39.553Z,0.60
2023-02-26T15:04:20.476Z,0.70
2023-02-26T15:07:02.425Z,1.27
2023-02-26T15:09:40.505Z,1.10
2023-02-26T15:12:20.782Z,0.70
2023-02-26T15:15:07.843Z,1.20
2023-02-26T15:17:48.369Z,0.50
2023-02-26T15:20:27.059Z,0.70
2023-02-26T15:23:10.209Z,0.80
2023-02-26T15:25:41.558Z,0.67
2023-02-26T15:28:15.768Z,0.70
2023-02-26T15:30:47.217Z,0.40
2023-02-26T15:33:18.297Z,0.70
2023-02-26T15:35:46.394Z,0.50
2023-02-26T15:38:17.421Z,0.83
2023-02-26T15:40:46.004Z,1.10
2023-02-26T15:43:17.448Z,0.90
2023-02-26T15:45:48.214Z,0.83
2023-02-26T15:48:19.845Z,1.33
2023-02-26T15:50:54.293Z,1.60
2023-02-26T15:53:30.862Z,0.80
2023-02-26T15:56:01.089Z,0.70
2023-02-26T15:58:36.866Z,0.63
2023-02-26T16:01:07.247Z,0.80
2023-02-26T16:03:37.133Z,1.10
2023-02-26T16:06:09.808Z,0.80
2023-02-26T16:08:43.216Z,1.00
2023-02-26T16:11:13.943Z,0.77
2023-02-26T16:13:43.758Z,0.70
2023-02-26T16:16:20.387Z,0.70
2023-02-26T16:18:49.351Z,0.60
2023-02-26T16:21:27.123Z,1.50
2023-02-26T16:23:58.420Z,1.10
2023-02-26T16:26:32.059Z,1.37
2023-02-26T16:29:02.799Z,0.90
2023-02-26T16:31:37.969Z,0.70
2023-02-26T16:34:23.732Z,0.57
2023-02-26T16:36:53.123Z,1.70
2023-02-26T16:39:25.517Z,0.90
2023-02-26T16:42:09.221Z,0.50
2023-02-26T16:44:44.987Z,1.00
2023-02-26T16:47:13.777Z,1.00
2023-02-26T16:52:21.224Z,1.00
2023-02-26T16:54:59.365Z,1.07
2023-02-26T16:57:34.235Z,1.20
2023-02-26T17:00:09.762Z,1.07
2023-02-26T17:02:39.615Z,0.63
2023-02-26T17:05:17.249Z,0.77
2023-02-26T17:07:51.547Z,1.00
2023-02-26T17:10:25.709Z,1.10
2023-02-26T17:13:04.008Z,1.30
2023-02-26T17:15:36.138Z,0.67
2023-02-26T17:18:04.358Z,0.83
2023-02-26T17:21:28.077Z,0.90
2023-02-26T17:23:57.167Z,0.80
2023-02-26T17:26:27.392Z,1.00
2023-02-26T17:28:56.153Z,0.87
2023-02-26T17:31:24.340Z,0.90
2023-02-26T17:33:53.239Z,0.77
2023-02-26T17:36:22.143Z,1.07
2023-02-26T17:38:50.525Z,1.90
2023-02-26T17:41:20.190Z,0.87
2023-02-26T17:48:34.667Z,0.90
2023-02-26T17:51:04.585Z,0.93
2023-02-26T17:53:41.181Z,1.30
2023-02-26T17:56:13.636Z,0.90
2023-02-26T17:58:42.241Z,1.13
2023-02-26T18:01:12.305Z,1.07
2023-02-26T18:03:40.869Z,1.40
2023-02-26T18:06:13.064Z,1.40
2023-02-26T18:08:41.878Z,1.27
2023-02-26T18:11:13.636Z,1.50
2023-02-26T18:13:41.654Z,1.40
2023-02-26T18:16:17.731Z,6.40
2023-02-26T18:18:46.174Z,2.30
2023-02-26T18:21:20.516Z,1.13
2023-02-26T18:23:48.636Z,1.47
2023-02-26T18:26:19.495Z,2.17
2023-02-26T18:28:48.093Z,1.50
2023-02-26T18:34:21.301Z,1.50
2023-02-26T18:36:51.031Z,1.30
2023-02-26T18:39:22.071Z,1.67
2023-02-26T18:41:50.238Z,1.50
2023-02-26T18:44:18.435Z,1.47
2023-02-26T18:46:46.899Z,1.10
2023-02-26T18:49:20.394Z,1.90
2023-02-26T18:51:51.162Z,1.43
2023-02-26T18:54:19.492Z,1.27
2023-02-26T18:56:48.070Z,1.90
2023-02-26T18:59:16.269Z,1.30
2023-02-26T19:01:44.590Z,1.23
2023-02-26T19:04:12.678Z,1.80
2023-02-26T19:06:40.825Z,1.13
2023-02-26T19:09:11.123Z,1.40
2023-02-26T19:11:42.502Z,1.87
2023-02-26T19:14:10.809Z,1.37
2023-02-26T19:16:39.491Z,1.50
2023-02-26T19:19:11.202Z,1.20
2023-02-26T19:21:40.675Z,1.60
2023-02-26T19:24:11.718Z,0.90
2023-02-26T19:26:40.838Z,1.57
2023-02-26T19:29:11.714Z,1.60
2023-02-26T19:31:39.838Z,1.50
2023-02-26T19:34:08.004Z,1.70
2023-02-26T19:36:36.349Z,1.83
2023-02-26T19:39:06.376Z,1.33
2023-02-26T19:41:36.785Z,2.00
2023-02-26T19:44:05.350Z,1.60
2023-02-26T19:46:33.748Z,1.70
2023-02-26T19:49:02.203Z,1.80
2023-02-26T19:51:30.633Z,1.83
2023-02-26T19:53:58.911Z,1.73
2023-02-26T19:56:30.248Z,1.47
2023-02-26T19:58:59.729Z,2.00
2023-02-26T20:01:28.073Z,1.50
2023-02-26T20:03:56.714Z,1.60
2023-02-26T20:06:24.872Z,1.67
2023-02-26T20:08:53.362Z,1.73
2023-02-26T20:11:22.039Z,1.70
2023-02-26T20:13:50.236Z,1.60
2023-02-26T20:16:20.078Z,2.10
2023-02-26T20:18:49.033Z,1.77
2023-02-26T20:21:17.116Z,2.30
2023-02-26T20:23:45.377Z,1.90
2023-02-26T20:26:15.931Z,1.83
2023-02-26T20:28:44.681Z,2.13
2023-02-26T20:31:13.380Z,2.00
2023-02-26T20:33:43.087Z,2.33
2023-02-26T20:36:12.021Z,2.43
2023-02-26T20:38:40.505Z,2.13
2023-02-26T20:41:08.946Z,2.20
2023-02-26T20:43:36.989Z,2.13
2023-02-26T20:46:05.778Z,2.03
2023-02-26T20:48:37.134Z,1.97
2023-02-26T20:51:07.480Z,2.00
2023-02-26T20:53:35.857Z,1.33
2023-02-26T20:56:04.638Z,1.90
2023-02-26T20:58:32.894Z,1.80
2023-02-26T21:01:01.017Z,1.90
2023-02-26T21:03:29.086Z,4.50
2023-02-26T21:05:57.152Z,4.47
2023-02-26T21:08:26.978Z,1.50
2023-02-26T21:10:55.391Z,1.80
2023-02-26T21:13:23.813Z,1.50
2023-02-26T21:15:51.870Z,1.97
2023-02-26T21:18:20.048Z,1.50
2023-02-26T21:20:51.128Z,1.70
2023-02-26T21:23:20.548Z,1.40
2023-02-26T21:25:51.487Z,1.67
2023-02-26T21:28:19.768Z,1.97
2023-02-26T21:30:47.917Z,2.30
2023-02-26T21:33:16.109Z,1.97
2023-02-26T21:35:46.416Z,1.80
2023-02-26T21:38:15.181Z,2.03
2023-02-26T21:40:44.396Z,2.27
2023-02-26T21:43:14.593Z,2.00
2023-02-26T21:45:44.290Z,1.90
2023-02-26T21:48:12.879Z,1.73
2023-02-26T21:50:41.242Z,2.17
2023-02-26T21:53:10.089Z,2.07
2023-02-26T21:55:38.579Z,2.20
2023-02-26T21:58:06.933Z,2.27
2023-02-26T22:00:36.485Z,1.53
2023-02-26T22:03:05.345Z,1.50
2023-02-26T22:05:33.358Z,2.13
2023-02-26T22:08:01.640Z,1.90
2023-02-26T22:10:29.680Z,2.10
2023-02-26T22:12:57.642Z,1.90
2023-02-26T22:15:28.222Z,1.80
2023-02-26T22:17:57.590Z,3.03
2023-02-26T22:20:26.117Z,3.80
2023-02-26T22:22:54.289Z,2.67
2023-02-26T22:25:22.430Z,2.00
2023-02-26T22:27:50.521Z,2.93
2023-02-26T22:30:18.778Z,2.10
2023-02-26T22:32:47.690Z,1.97
2023-02-26T22:35:17.327Z,1.93
2023-02-26T22:37:45.905Z,2.20
2023-02-26T22:40:15.549Z,1.97
2023-02-26T22:42:45.096Z,2.27
2023-02-26T22:45:16.941Z,2.10
2023-02-26T22:47:45.749Z,2.13
2023-02-26T22:50:14.407Z,2.30
2023-02-26T22:52:44.467Z,1.80
2023-02-26T22:55:13.347Z,1.90
2023-02-26T22:57:41.716Z,1.80
2023-02-26T23:00:14.701Z,2.00
2023-02-26T23:02:43.356Z,2.20
2023-02-26T23:05:11.853Z,2.00
2023-02-26T23:07:40.745Z,1.63
2023-02-26T23:10:14.562Z,1.37
2023-02-26T23:12:43.153Z,2.17
2023-02-26T23:15:12.137Z,1.57
2023-02-26T23:17:40.525Z,1.30
2023-02-26T23:20:13.694Z,1.87
2023-02-26T23:22:43.712Z,1.70
2023-02-26T23:25:13.507Z,1.43
2023-02-26T23:27:41.744Z,1.60
2023-02-26T23:30:10.923Z,1.93
2023-02-26T23:32:39.555Z,1.30
2023-02-26T23:35:08.224Z,1.20
2023-02-26T23:37:36.272Z,1.47
2023-02-26T23:40:05.129Z,1.10
2023-02-26T23:42:34.722Z,1.27
2023-02-26T23:45:02.776Z,1.40
2023-02-26T23:47:30.818Z,1.37
2023-02-26T23:49:59.097Z,1.70
2023-02-26T23:52:27.460Z,1.50
2023-02-26T23:54:56.809Z,1.40
2023-02-26T23:57:25.351Z,1.13
2023-02-26T23:59:57.184Z,1.40
